createdAt,value
2023-05-19T00:00:37.983Z,9.80
2023-05-19T00:01:38.101Z,9.00
2023-05-19T00:02:38.355Z,10.80
2023-05-19T00:03:38.273Z,10.10
2023-05-19T00:04:38.320Z,10.00
2023-05-19T00:05:38.423Z,10.80
2023-05-19T00:06:38.491Z,10.40
2023-05-19T00:07:38.513Z,10.40
2023-05-19T00:08:38.599Z,11.80
2023-05-19T00:09:38.715Z,9.70
2023-05-19T00:10:38.777Z,8.20
2023-05-19T00:11:38.879Z,9.80
2023-05-19T00:12:38.944Z,9.90
2023-05-19T00:13:39.031Z,7.60
2023-05-19T00:14:39.159Z,11.30
2023-05-19T00:15:39.248Z,10.30
2023-05-19T00:16:39.309Z,10.50
2023-05-19T00:17:39.391Z,9.20
2023-05-19T00:18:39.482Z,10.20
2023-05-19T00:19:39.517Z,9.40
2023-05-19T00:20:39.642Z,10.30
2023-05-19T00:21:39.675Z,11.00
2023-05-19T00:22:39.759Z,9.00
2023-05-19T00:23:39.864Z,9.30
2023-05-19T00:24:39.930Z,10.70
2023-05-19T00:25:39.973Z,10.90
2023-05-19T00:26:40.066Z,7.90
2023-05-19T00:27:40.158Z,8.70
2023-05-19T00:28:40.280Z,10.50
2023-05-19T00:29:40.323Z,9.60
2023-05-19T00:30:40.408Z,9.00
2023-05-19T00:31:40.488Z,9.30
2023-05-19T00:32:40.658Z,9.80
2023-05-19T00:33:40.652Z,9.80
2023-05-19T00:34:40.724Z,11.30
2023-05-19T00:35:40.812Z,9.70
2023-05-19T00:36:40.914Z,9.30
2023-05-19T00:37:41.018Z,9.40
2023-05-19T00:38:41.065Z,9.10
2023-05-19T00:39:41.175Z,9.70
2023-05-19T00:40:41.219Z,9.40
2023-05-19T00:41:41.299Z,8.20
2023-05-19T00:42:41.373Z,9.80
2023-05-19T00:43:41.479Z,9.40
2023-05-19T00:44:41.557Z,10.40
2023-05-19T00:45:41.605Z,9.00
2023-05-19T00:46:41.736Z,9.10
2023-05-19T00:47:41.818Z,9.60
2023-05-19T00:48:41.884Z,9.80
2023-05-19T00:49:41.966Z,8.40
2023-05-19T00:50:42.000Z,10.20
2023-05-19T00:51:42.101Z,9.90
2023-05-19T00:52:42.182Z,9.80
2023-05-19T00:53:42.267Z,11.50
2023-05-19T00:54:42.405Z,9.40
2023-05-19T00:55:42.446Z,10.20
2023-05-19T00:56:42.536Z,9.60
2023-05-19T00:57:42.632Z,10.50
2023-05-19T00:58:42.717Z,9.30
2023-05-19T00:59:42.825Z,9.40
2023-05-19T01:00:42.883Z,10.20
2023-05-19T01:01:43.453Z,9.50
2023-05-19T01:02:43.133Z,10.50
2023-05-19T01:03:43.318Z,9.60
2023-05-19T01:04:43.211Z,9.80
2023-05-19T01:05:43.302Z,8.80
2023-05-19T01:06:43.430Z,8.00
2023-05-19T01:07:43.470Z,11.40
2023-05-19T01:08:43.562Z,8.90
2023-05-19T01:09:43.661Z,10.90
2023-05-19T01:10:43.749Z,8.80
2023-05-19T01:11:43.893Z,8.00
2023-05-19T01:12:43.929Z,9.90
2023-05-19T01:13:44.000Z,8.50
2023-05-19T01:14:44.102Z,8.80
2023-05-19T01:15:44.177Z,8.30
2023-05-19T01:16:44.320Z,9.10
2023-05-19T01:17:44.384Z,7.80
2023-05-19T01:18:44.437Z,10.00
2023-05-19T01:19:44.472Z,11.00
2023-05-19T01:20:44.563Z,9.30
2023-05-19T01:21:44.710Z,9.50
2023-05-19T01:22:44.738Z,10.50
2023-05-19T01:23:44.829Z,9.00
2023-05-19T01:24:44.956Z,10.40
2023-05-19T01:25:45.003Z,7.90
2023-05-19T01:26:45.133Z,10.00
2023-05-19T01:27:45.168Z,9.50
2023-05-19T01:28:45.273Z,8.60
2023-05-19T01:29:45.313Z,9.90
2023-05-19T01:30:45.389Z,9.50
2023-05-19T01:31:45.491Z,8.40
2023-05-19T01:32:45.587Z,8.10
2023-05-19T01:33:45.690Z,7.80
2023-05-19T01:34:45.748Z,8.50
2023-05-19T01:35:45.805Z,10.40
2023-05-19T01:36:45.890Z,9.70
2023-05-19T01:37:45.979Z,8.20
2023-05-19T01:38:46.098Z,7.70
2023-05-19T01:39:46.136Z,9.90
2023-05-19T01:40:46.219Z,10.20
2023-05-19T01:41:46.314Z,10.20
2023-05-19T01:42:46.411Z,10.10
2023-05-19T01:43:46.539Z,9.70
2023-05-19T01:44:46.578Z,10.60
2023-05-19T01:45:46.754Z,9.90
2023-05-19T01:46:46.774Z,10.80
2023-05-19T01:47:46.927Z,7.50
2023-05-19T01:48:46.954Z,9.20
2023-05-19T01:49:46.993Z,11.10
2023-05-19T01:50:47.119Z,8.80
2023-05-19T01:51:47.151Z,8.80
2023-05-19T01:52:47.234Z,8.40
2023-05-19T01:53:47.330Z,8.50
2023-05-19T01:54:47.456Z,8.50
2023-05-19T01:55:47.503Z,7.60
2023-05-19T01:56:47.596Z,8.80
2023-05-19T01:57:47.672Z,9.40
2023-05-19T01:58:47.784Z,9.80
2023-05-19T01:59:47.890Z,9.80
2023-05-19T02:00:47.930Z,8.10
2023-05-19T02:01:48.032Z,8.50
2023-05-19T02:02:48.152Z,9.00
2023-05-19T02:03:48.233Z,9.00
2023-05-19T02:04:48.361Z,9.50
2023-05-19T02:05:48.359Z,8.60
2023-05-19T02:06:48.457Z,8.10
2023-05-19T02:07:48.497Z,8.50
2023-05-19T02:08:48.569Z,7.20
2023-05-19T02:09:48.646Z,8.70
2023-05-19T02:10:48.743Z,8.50
2023-05-19T02:11:48.838Z,9.70
2023-05-19T02:12:48.921Z,9.90
2023-05-19T02:13:48.983Z,9.90
2023-05-19T02:14:49.082Z,10.10
2023-05-19T02:15:49.218Z,6.40
2023-05-19T02:16:49.277Z,8.90
2023-05-19T02:17:49.346Z,9.00
2023-05-19T02:18:49.411Z,8.30
2023-05-19T02:19:49.501Z,9.50
2023-05-19T02:20:49.585Z,9.20
2023-05-19T02:21:49.704Z,9.30
2023-05-19T02:22:49.735Z,7.90
2023-05-19T02:23:49.808Z,8.10
2023-05-19T02:24:49.892Z,8.00
2023-05-19T02:25:49.966Z,9.20
2023-05-19T02:26:50.067Z,10.20
2023-05-19T02:27:50.116Z,8.00
2023-05-19T02:28:50.210Z,9.70
2023-05-19T02:29:50.243Z,7.80
2023-05-19T02:30:50.324Z,8.00
2023-05-19T02:31:50.458Z,9.40
2023-05-19T02:32:50.554Z,8.60
2023-05-19T02:33:50.565Z,10.20
2023-05-19T02:34:50.678Z,9.10
2023-05-19T02:35:50.754Z,8.20
2023-05-19T02:36:50.921Z,10.70
2023-05-19T02:37:50.967Z,7.40
2023-05-19T02:38:51.041Z,7.00
2023-05-19T02:39:51.114Z,9.00
2023-05-19T02:40:51.201Z,8.00
2023-05-19T02:41:51.306Z,7.40
2023-05-19T02:42:51.445Z,9.30
2023-05-19T02:43:51.466Z,8.40
2023-05-19T02:44:51.566Z,8.60
2023-05-19T02:45:51.612Z,8.50
2023-05-19T02:46:51.800Z,7.20
2023-05-19T02:47:51.832Z,7.80
2023-05-19T02:48:51.844Z,10.00
2023-05-19T02:49:51.935Z,9.30
2023-05-19T02:50:52.029Z,9.10
2023-05-19T02:51:52.120Z,8.80
2023-05-19T02:52:52.223Z,8.40
2023-05-19T02:53:52.288Z,7.90
2023-05-19T02:54:59.859Z,9.00
2023-05-19T02:55:52.419Z,8.40
2023-05-19T02:56:52.507Z,8.20
2023-05-19T02:57:52.644Z,9.10
2023-05-19T02:58:52.683Z,8.00
2023-05-19T02:59:52.778Z,7.00
2023-05-19T03:00:52.799Z,9.60
2023-05-19T03:01:52.920Z,9.20
2023-05-19T03:02:53.082Z,8.90
2023-05-19T03:03:53.246Z,10.00
2023-05-19T03:04:53.206Z,8.80
2023-05-19T03:05:53.268Z,7.90
2023-05-19T03:06:53.321Z,10.50
2023-05-19T03:07:53.406Z,8.00
2023-05-19T03:08:53.476Z,8.90
2023-05-19T03:09:53.569Z,8.40
2023-05-19T03:10:53.648Z,7.80
2023-05-19T03:11:53.794Z,9.30
2023-05-19T03:12:53.816Z,7.10
2023-05-19T03:13:53.956Z,8.70
2023-05-19T03:14:54.033Z,10.10
2023-05-19T03:15:54.054Z,6.70
2023-05-19T03:16:54.269Z,9.60
2023-05-19T03:17:54.317Z,7.80
2023-05-19T03:18:54.320Z,7.20
2023-05-19T03:19:54.385Z,9.20
2023-05-19T03:20:54.437Z,7.40
2023-05-19T03:21:54.553Z,9.20
2023-05-19T03:22:54.595Z,8.60
2023-05-19T03:23:54.687Z,8.80
2023-05-19T03:24:54.795Z,9.20
2023-05-19T03:25:54.844Z,8.00
2023-05-19T03:26:54.945Z,7.80
2023-05-19T03:27:55.105Z,8.00
2023-05-19T03:28:55.094Z,10.10
2023-05-19T03:29:55.184Z,7.20
2023-05-19T03:30:55.262Z,7.50
2023-05-19T03:31:55.327Z,8.10
2023-05-19T03:32:55.503Z,11.30
2023-05-19T03:33:55.502Z,6.40
2023-05-19T03:34:55.608Z,8.10
2023-05-19T03:35:55.654Z,8.80
2023-05-19T03:36:55.738Z,7.50
2023-05-19T03:37:55.814Z,9.90
2023-05-19T03:38:55.895Z,9.20
2023-05-19T03:39:56.023Z,8.60
2023-05-19T03:40:56.074Z,7.80
2023-05-19T03:41:56.158Z,9.10
2023-05-19T03:42:56.254Z,8.40
2023-05-19T03:43:56.328Z,8.20
2023-05-19T03:44:56.444Z,9.00
2023-05-19T03:45:56.553Z,8.60
2023-05-19T03:46:56.563Z,9.00
2023-05-19T03:47:56.650Z,8.80
2023-05-19T03:48:56.728Z,6.50
2023-05-19T03:49:56.846Z,8.70
2023-05-19T03:50:56.924Z,7.30
2023-05-19T03:51:56.958Z,8.10
2023-05-19T03:52:57.058Z,6.40
2023-05-19T03:53:57.163Z,6.50
2023-05-19T03:54:57.255Z,8.40
2023-05-19T03:55:57.314Z,8.40
2023-05-19T03:56:57.360Z,7.90
2023-05-19T03:57:57.477Z,7.40
2023-05-19T03:58:57.533Z,6.50
2023-05-19T03:59:57.605Z,8.70
2023-05-19T04:00:57.705Z,8.60
2023-05-19T04:01:57.926Z,7.70
2023-05-19T04:02:57.951Z,7.10
2023-05-19T04:03:57.981Z,6.40
2023-05-19T04:04:58.093Z,9.30
2023-05-19T04:05:58.122Z,8.40
2023-05-19T04:06:58.170Z,8.40
2023-05-19T04:07:58.257Z,11.10
2023-05-19T04:08:58.336Z,7.60
2023-05-19T04:09:58.419Z,8.50
2023-05-19T04:10:58.549Z,7.90
2023-05-19T04:11:58.592Z,7.60
2023-05-19T04:12:58.713Z,9.50
2023-05-19T04:13:58.742Z,8.90
2023-05-19T04:14:58.828Z,8.50
2023-05-19T04:15:58.946Z,8.20
2023-05-19T04:16:59.025Z,9.40
2023-05-19T04:17:59.135Z,10.60
2023-05-19T04:18:59.194Z,7.60
2023-05-19T04:19:59.254Z,7.50
2023-05-19T04:20:59.380Z,8.80
2023-05-19T04:21:59.422Z,7.10
2023-05-19T04:22:59.557Z,8.30
2023-05-19T04:23:59.601Z,6.90
2023-05-19T04:24:59.706Z,7.60
2023-05-19T04:25:59.731Z,7.50
2023-05-19T04:26:59.810Z,7.70
2023-05-19T04:27:59.915Z,9.20
2023-05-19T04:28:59.961Z,8.80
2023-05-19T04:30:00.034Z,7.50
2023-05-19T04:31:00.227Z,8.10
2023-05-19T04:32:00.218Z,6.90
2023-05-19T04:33:00.376Z,9.00
2023-05-19T04:34:00.441Z,7.40
2023-05-19T04:35:00.477Z,10.00
2023-05-19T04:36:00.577Z,7.50
2023-05-19T04:37:00.641Z,7.70
2023-05-19T04:38:00.756Z,8.80
2023-05-19T04:39:00.791Z,9.30
2023-05-19T04:40:00.869Z,8.00
2023-05-19T04:41:00.962Z,8.00
2023-05-19T04:42:01.052Z,8.00
2023-05-19T04:43:01.161Z,8.20
2023-05-19T04:44:01.184Z,8.70
2023-05-19T04:45:01.384Z,7.40
2023-05-19T04:46:01.342Z,8.00
2023-05-19T04:47:01.588Z,9.00
2023-05-19T04:48:01.550Z,8.30
2023-05-19T04:49:01.647Z,8.00
2023-05-19T04:50:01.774Z,7.30
2023-05-19T04:51:01.856Z,8.50
2023-05-19T04:52:01.893Z,8.30
2023-05-19T04:53:01.929Z,9.60
2023-05-19T04:54:02.015Z,8.80
2023-05-19T04:55:02.099Z,8.30
2023-05-19T04:56:02.245Z,9.70
2023-05-19T04:57:02.304Z,8.50
2023-05-19T04:58:02.342Z,8.40
2023-05-19T04:59:02.425Z,8.10
2023-05-19T05:00:02.524Z,9.00
2023-05-19T05:01:02.614Z,7.00
2023-05-19T05:02:02.861Z,9.40
2023-05-19T05:03:02.810Z,8.30
2023-05-19T05:04:03.138Z,7.70
2023-05-19T05:05:02.929Z,8.40
2023-05-19T05:06:02.991Z,8.50
2023-05-19T05:07:03.076Z,8.10
2023-05-19T05:08:03.147Z,9.30
2023-05-19T05:09:03.214Z,8.40
2023-05-19T05:10:03.312Z,9.70
2023-05-19T05:11:03.398Z,8.30
2023-05-19T05:12:03.540Z,8.50
2023-05-19T05:13:03.576Z,8.20
2023-05-19T05:14:03.659Z,8.00
2023-05-19T05:15:03.739Z,9.20
2023-05-19T05:16:03.878Z,8.50
2023-05-19T05:17:03.925Z,9.30
2023-05-19T05:18:03.998Z,9.60
2023-05-19T05:19:04.090Z,9.30
2023-05-19T05:20:04.161Z,8.70
2023-05-19T05:21:04.261Z,8.50
2023-05-19T05:22:04.297Z,7.60
2023-05-19T05:23:04.384Z,9.00
2023-05-19T05:24:04.476Z,7.70
2023-05-19T05:25:04.522Z,7.70
2023-05-19T05:26:04.611Z,8.40
2023-05-19T05:27:04.703Z,8.70
2023-05-19T05:28:04.762Z,9.10
2023-05-19T05:29:04.887Z,8.50
2023-05-19T05:30:04.926Z,8.80
2023-05-19T05:31:05.012Z,10.40
2023-05-19T05:32:05.189Z,8.90
2023-05-19T05:33:05.328Z,9.10
2023-05-19T05:34:05.297Z,9.40
2023-05-19T05:35:05.388Z,8.30
2023-05-19T05:36:05.469Z,8.50
2023-05-19T05:37:05.546Z,9.10
2023-05-19T05:38:05.635Z,8.70
2023-05-19T05:39:05.732Z,9.80
2023-05-19T05:40:05.887Z,8.80
2023-05-19T05:41:05.881Z,11.30
2023-05-19T05:42:05.946Z,8.80
2023-05-19T05:43:06.044Z,9.30
2023-05-19T05:44:06.166Z,11.40
2023-05-19T05:45:06.176Z,8.20
2023-05-19T05:46:06.385Z,9.80
2023-05-19T05:47:06.365Z,10.20
2023-05-19T05:48:06.473Z,7.60
2023-05-19T05:49:06.531Z,6.90
2023-05-19T05:50:06.625Z,7.20
2023-05-19T05:51:06.677Z,9.40
2023-05-19T05:52:07.062Z,9.70
2023-05-19T05:53:06.850Z,8.60
2023-05-19T05:54:06.919Z,9.30
2023-05-19T05:55:07.031Z,9.00
2023-05-19T05:56:07.034Z,9.70
2023-05-19T05:57:07.109Z,9.00
2023-05-19T05:58:07.218Z,7.80
2023-05-19T05:59:07.289Z,10.20
2023-05-19T06:00:07.391Z,9.30
2023-05-19T06:01:07.486Z,8.70
2023-05-19T06:02:07.585Z,7.50
2023-05-19T06:03:07.835Z,8.60
2023-05-19T06:04:07.710Z,7.50
2023-05-19T06:05:07.861Z,9.40
2023-05-19T06:06:07.830Z,9.10
2023-05-19T06:07:07.941Z,9.70
2023-05-19T06:08:08.037Z,9.10
2023-05-19T06:09:08.077Z,11.00
2023-05-19T06:10:08.163Z,9.10
2023-05-19T06:11:08.291Z,7.80
2023-05-19T06:12:08.317Z,9.20
2023-05-19T06:13:08.435Z,9.60
2023-05-19T06:14:08.527Z,9.40
2023-05-19T06:15:08.595Z,7.90
2023-05-19T06:16:08.777Z,8.60
2023-05-19T06:17:08.746Z,9.00
2023-05-19T06:18:08.906Z,9.10
2023-05-19T06:19:08.978Z,7.30
2023-05-19T06:20:09.023Z,7.50
2023-05-19T06:21:09.116Z,7.80
2023-05-19T06:22:09.250Z,9.20
2023-05-19T06:23:09.321Z,10.00
2023-05-19T06:24:09.386Z,9.40
2023-05-19T06:25:09.484Z,7.90
2023-05-19T06:26:09.586Z,9.30
2023-05-19T06:27:09.725Z,8.90
2023-05-19T06:28:09.841Z,9.40
2023-05-19T06:29:09.853Z,8.20
2023-05-19T06:30:09.920Z,8.20
2023-05-19T06:31:10.021Z,7.80
2023-05-19T06:32:10.092Z,7.40
2023-05-19T06:33:10.257Z,9.20
2023-05-19T06:34:10.214Z,8.80
2023-05-19T06:35:10.312Z,9.50
2023-05-19T06:36:10.385Z,8.20
2023-05-19T06:37:10.473Z,8.20
2023-05-19T06:38:10.601Z,7.30
2023-05-19T06:39:10.670Z,10.10
2023-05-19T06:40:10.743Z,7.70
2023-05-19T06:41:10.799Z,7.20
2023-05-19T06:42:10.887Z,8.90
2023-05-19T06:43:11.019Z,9.30
2023-05-19T06:44:11.067Z,9.90
2023-05-19T06:45:11.161Z,7.40
2023-05-19T06:46:11.266Z,8.60
2023-05-19T06:47:11.369Z,8.10
2023-05-19T06:48:11.462Z,9.10
2023-05-19T06:49:11.469Z,9.70
2023-05-19T06:50:11.580Z,7.40
2023-05-19T06:51:11.646Z,9.20
2023-05-19T06:52:11.704Z,9.90
2023-05-19T06:53:11.850Z,8.50
2023-05-19T06:54:11.860Z,8.70
2023-05-19T06:55:11.964Z,9.20
2023-05-19T06:56:12.062Z,8.20
2023-05-19T06:57:12.163Z,10.20
2023-05-19T06:58:12.253Z,8.20
2023-05-19T06:59:12.336Z,8.10
2023-05-19T07:00:13.874Z,9.20
2023-05-19T07:01:12.503Z,8.80
2023-05-19T07:02:12.646Z,10.20
2023-05-19T07:03:12.722Z,7.10
2023-05-19T07:04:12.790Z,7.70
2023-05-19T07:05:12.797Z,7.50
2023-05-19T07:06:12.884Z,9.80
2023-05-19T07:07:12.943Z,7.20
2023-05-19T07:08:13.014Z,8.50
2023-05-19T07:09:13.098Z,8.50
2023-05-19T07:10:13.184Z,7.50
2023-05-19T07:11:13.267Z,7.80
2023-05-19T07:12:13.345Z,7.10
2023-05-19T07:13:13.407Z,9.00
2023-05-19T07:14:13.506Z,9.60
2023-05-19T07:15:13.588Z,13.30
2023-05-19T07:16:13.708Z,7.20
2023-05-19T07:17:13.772Z,9.90
2023-05-19T07:18:13.926Z,7.90
2023-05-19T07:19:13.951Z,7.00
2023-05-19T07:20:14.046Z,8.50
2023-05-19T07:21:14.103Z,9.60
2023-05-19T07:22:14.170Z,8.10
2023-05-19T07:23:16.656Z,10.00
2023-05-19T07:24:14.350Z,8.10
2023-05-19T07:25:14.452Z,8.50
2023-05-19T07:26:14.531Z,8.60
2023-05-19T07:27:14.562Z,7.50
2023-05-19T07:28:14.676Z,9.70
2023-05-19T07:29:14.738Z,8.90
2023-05-19T07:30:14.864Z,9.50
2023-05-19T07:31:14.917Z,8.50
2023-05-19T07:32:15.194Z,8.40
2023-05-19T07:33:15.183Z,8.60
2023-05-19T07:34:15.175Z,7.30
2023-05-19T07:35:15.312Z,9.70
2023-05-19T07:36:15.395Z,7.40
2023-05-19T07:37:15.464Z,8.40
2023-05-19T07:38:15.550Z,7.70
2023-05-19T07:39:15.712Z,8.90
2023-05-19T07:40:15.708Z,11.20
2023-05-19T07:41:15.789Z,7.80
2023-05-19T07:42:15.884Z,9.70
2023-05-19T07:43:15.951Z,8.40
2023-05-19T07:44:16.025Z,8.20
2023-05-19T07:45:16.144Z,8.00
2023-05-19T07:46:16.213Z,7.40
2023-05-19T07:47:16.267Z,7.30
2023-05-19T07:48:16.413Z,9.20
2023-05-19T07:49:16.427Z,8.30
2023-05-19T07:50:16.505Z,7.10
2023-05-19T07:51:16.572Z,6.60
2023-05-19T07:52:16.663Z,8.30
2023-05-19T07:53:16.735Z,8.20
2023-05-19T07:54:16.796Z,10.00
2023-05-19T07:55:16.853Z,7.30
2023-05-19T07:56:16.954Z,7.40
2023-05-19T07:57:17.069Z,8.50
2023-05-19T07:58:17.127Z,9.10
2023-05-19T07:59:17.251Z,8.90
2023-05-19T08:00:17.297Z,8.70
2023-05-19T08:01:17.398Z,8.60
2023-05-19T08:02:17.521Z,10.00
2023-05-19T08:03:17.907Z,6.90
2023-05-19T08:04:17.806Z,8.10
2023-05-19T08:05:17.773Z,8.40
2023-05-19T08:06:17.864Z,7.30
2023-05-19T08:07:17.931Z,7.40
2023-05-19T08:08:18.028Z,7.50
2023-05-19T08:09:18.100Z,7.10
2023-05-19T08:10:18.178Z,7.50
2023-05-19T08:11:18.227Z,8.80
2023-05-19T08:12:18.324Z,7.70
2023-05-19T08:13:18.423Z,8.60
2023-05-19T08:14:18.527Z,7.70
2023-05-19T08:15:18.605Z,7.10
2023-05-19T08:16:18.743Z,8.20
2023-05-19T08:17:18.743Z,8.80
2023-05-19T08:18:18.860Z,7.80
2023-05-19T08:19:18.976Z,9.60
2023-05-19T08:20:19.016Z,9.40
2023-05-19T08:21:19.090Z,6.60
2023-05-19T08:22:19.147Z,7.90
2023-05-19T08:23:19.247Z,7.40
2023-05-19T08:24:19.379Z,8.60
2023-05-19T08:25:19.422Z,7.70
2023-05-19T08:26:19.554Z,8.50
2023-05-19T08:27:19.581Z,8.80
2023-05-19T08:28:19.645Z,8.50
2023-05-19T08:29:19.762Z,7.10
2023-05-19T08:30:19.853Z,7.50
2023-05-19T08:31:19.971Z,6.90
2023-05-19T08:32:20.005Z,7.30
2023-05-19T08:33:20.059Z,7.70
2023-05-19T08:34:20.120Z,7.70
2023-05-19T08:35:20.238Z,8.00
2023-05-19T08:36:20.320Z,8.40
2023-05-19T08:37:20.397Z,8.20
2023-05-19T08:38:20.451Z,8.00
2023-05-19T08:39:20.569Z,9.70
2023-05-19T08:40:20.622Z,8.80
2023-05-19T08:41:20.733Z,8.70
2023-05-19T08:42:20.809Z,7.70
2023-05-19T08:43:20.883Z,9.40
2023-05-19T08:44:20.974Z,7.20
2023-05-19T08:45:21.045Z,7.40
2023-05-19T08:46:21.125Z,6.70
2023-05-19T08:47:21.186Z,8.20
2023-05-19T08:48:21.274Z,6.70
2023-05-19T08:49:21.879Z,8.00
2023-05-19T08:50:21.379Z,8.60
2023-05-19T08:51:21.495Z,6.40
2023-05-19T08:52:21.556Z,7.00
2023-05-19T08:53:32.425Z,7.80
2023-05-19T08:54:22.732Z,8.20
2023-05-19T08:55:29.293Z,10.20
2023-05-19T08:56:21.863Z,8.00
2023-05-19T08:57:21.951Z,6.30
2023-05-19T08:58:22.037Z,6.20
2023-05-19T08:59:22.157Z,5.90
2023-05-19T09:00:22.242Z,6.90
2023-05-19T09:01:22.352Z,6.90
2023-05-19T09:02:22.426Z,5.70
2023-05-19T09:03:24.031Z,6.50
2023-05-19T09:04:22.675Z,9.40
2023-05-19T09:05:22.718Z,6.20
2023-05-19T09:06:22.716Z,5.90
2023-05-19T09:07:22.775Z,5.00
2023-05-19T09:08:22.863Z,6.20
2023-05-19T09:09:22.974Z,7.00
2023-05-19T09:10:23.062Z,6.70
2023-05-19T09:11:23.196Z,7.90
2023-05-19T09:12:23.252Z,5.90
2023-05-19T09:13:23.406Z,7.10
2023-05-19T09:14:23.429Z,7.80
2023-05-19T09:15:23.533Z,6.10
2023-05-19T09:16:23.741Z,6.50
2023-05-19T09:17:23.727Z,5.20
2023-05-19T09:18:23.806Z,7.40
2023-05-19T09:19:23.937Z,6.70
2023-05-19T09:20:23.970Z,8.50
2023-05-19T09:21:24.066Z,9.80
2023-05-19T09:22:24.151Z,6.10
2023-05-19T09:23:24.211Z,6.50
2023-05-19T09:24:24.271Z,5.50
2023-05-19T09:25:24.374Z,5.50
2023-05-19T09:26:24.481Z,6.20
2023-05-19T09:27:24.542Z,5.00
2023-05-19T09:28:24.649Z,7.90
2023-05-19T09:29:24.712Z,7.50
2023-05-19T09:30:24.819Z,7.90
2023-05-19T09:31:24.932Z,11.20
2023-05-19T09:32:25.116Z,7.60
2023-05-19T09:33:25.104Z,8.40
2023-05-19T09:34:25.249Z,5.60
2023-05-19T09:35:25.265Z,7.30
2023-05-19T09:36:25.359Z,6.10
2023-05-19T09:37:25.466Z,6.80
2023-05-19T09:38:25.528Z,6.30
2023-05-19T09:39:25.654Z,5.60
2023-05-19T09:40:25.716Z,6.00
2023-05-19T09:41:25.815Z,5.60
2023-05-19T09:42:25.888Z,5.80
2023-05-19T09:43:25.944Z,5.00
2023-05-19T09:44:26.141Z,5.50
2023-05-19T09:45:26.105Z,7.90
2023-05-19T09:46:26.182Z,5.60
2023-05-19T09:47:26.313Z,7.10
2023-05-19T09:48:26.406Z,5.80
2023-05-19T09:49:26.450Z,8.70
2023-05-19T09:50:26.501Z,10.00
2023-05-19T09:51:26.580Z,6.60
2023-05-19T09:52:26.641Z,7.90
2023-05-19T09:53:26.756Z,6.80
2023-05-19T09:54:26.790Z,7.10
2023-05-19T09:55:26.884Z,7.30
2023-05-19T09:56:26.959Z,8.90
2023-05-19T09:57:27.033Z,11.70
2023-05-19T09:58:27.152Z,8.50
2023-05-19T09:59:28.436Z,9.30
2023-05-19T10:00:27.239Z,6.30
2023-05-19T10:01:27.391Z,7.50
2023-05-19T10:02:27.446Z,6.20
2023-05-19T10:03:27.497Z,5.40
2023-05-19T10:04:27.563Z,6.50
2023-05-19T10:05:27.661Z,5.90
2023-05-19T10:06:27.723Z,5.50
2023-05-19T10:07:27.775Z,6.40
2023-05-19T10:08:27.857Z,7.30
2023-05-19T10:09:27.911Z,9.80
2023-05-19T10:10:28.007Z,6.10
2023-05-19T10:11:28.067Z,6.40
2023-05-19T10:12:28.167Z,4.70
2023-05-19T10:13:28.282Z,6.40
2023-05-19T10:14:28.353Z,6.30
2023-05-19T10:15:28.449Z,7.10
2023-05-19T10:16:28.579Z,4.40
2023-05-19T10:17:28.643Z,4.90
2023-05-19T10:18:28.719Z,5.20
2023-05-19T10:19:29.050Z,5.10
2023-05-19T10:20:28.869Z,9.20
2023-05-19T10:21:28.942Z,4.90
2023-05-19T10:22:28.995Z,5.70
2023-05-19T10:23:29.140Z,5.40
2023-05-19T10:24:29.237Z,4.80
2023-05-19T10:25:29.299Z,5.10
2023-05-19T10:26:29.354Z,6.00
2023-05-19T10:27:29.468Z,5.10
2023-05-19T10:28:29.555Z,5.80
2023-05-19T10:29:29.622Z,6.20
2023-05-19T10:30:29.715Z,6.10
2023-05-19T10:31:29.787Z,6.20
2023-05-19T10:32:29.922Z,5.10
2023-05-19T10:33:29.958Z,5.60
2023-05-19T10:34:30.041Z,4.90
2023-05-19T10:35:31.452Z,6.70
2023-05-19T10:36:30.187Z,5.30
2023-05-19T10:37:30.254Z,5.00
2023-05-19T10:38:30.340Z,5.70
2023-05-19T10:39:30.396Z,5.10
2023-05-19T10:40:31.410Z,7.50
2023-05-19T10:41:30.560Z,7.10
2023-05-19T10:42:30.649Z,5.90
2023-05-19T10:43:30.761Z,7.10
2023-05-19T10:44:30.823Z,8.80
2023-05-19T10:45:31.010Z,5.00
2023-05-19T10:46:31.014Z,4.90
2023-05-19T10:47:31.089Z,6.30
2023-05-19T10:48:31.099Z,7.30
2023-05-19T10:49:31.204Z,5.40
2023-05-19T10:50:31.308Z,8.40
2023-05-19T10:51:31.392Z,6.00
2023-05-19T10:52:31.456Z,4.50
2023-05-19T10:53:31.554Z,6.70
2023-05-19T10:54:31.658Z,6.00
2023-05-19T10:55:31.925Z,6.50
2023-05-19T10:56:31.767Z,5.90
2023-05-19T10:57:31.901Z,5.50
2023-05-19T10:58:31.973Z,7.30
2023-05-19T10:59:32.078Z,4.00
2023-05-19T11:00:32.173Z,5.10
2023-05-19T11:01:32.185Z,6.10
2023-05-19T11:02:32.262Z,5.10
2023-05-19T11:03:32.339Z,6.20
2023-05-19T11:04:32.510Z,5.10
2023-05-19T11:05:32.585Z,5.40
2023-05-19T11:06:32.624Z,5.40
2023-05-19T11:07:32.657Z,6.00
2023-05-19T11:08:32.767Z,4.80
2023-05-19T11:09:39.897Z,7.40
2023-05-19T11:10:33.898Z,7.60
2023-05-19T11:11:33.307Z,5.20
2023-05-19T11:12:33.071Z,6.20
2023-05-19T11:13:33.183Z,5.70
2023-05-19T11:14:33.249Z,5.30
2023-05-19T11:15:33.503Z,5.50
2023-05-19T11:16:33.484Z,4.40
2023-05-19T11:17:34.980Z,5.20
2023-05-19T11:18:33.571Z,5.10
2023-05-19T11:19:33.654Z,5.10
2023-05-19T11:20:33.764Z,5.10
2023-05-19T11:21:33.862Z,6.30
2023-05-19T11:22:33.900Z,8.80
2023-05-19T11:23:35.563Z,5.90
2023-05-19T11:24:34.125Z,6.20
2023-05-19T11:25:34.340Z,5.30
2023-05-19T11:26:34.292Z,4.70
2023-05-19T11:27:34.388Z,5.60
2023-05-19T11:28:34.456Z,6.30
2023-05-19T11:29:34.911Z,4.90
2023-05-19T11:30:34.607Z,6.30
2023-05-19T11:31:34.746Z,5.70
2023-05-19T11:32:34.806Z,5.10
2023-05-19T11:33:34.852Z,5.50
2023-05-19T11:34:34.901Z,7.30
2023-05-19T11:35:36.261Z,7.70
2023-05-19T11:36:35.108Z,8.90
2023-05-19T11:37:35.182Z,5.60
2023-05-19T11:38:35.222Z,5.40
2023-05-19T11:39:35.285Z,5.90
2023-05-19T11:40:35.348Z,4.70
2023-05-19T11:41:35.476Z,5.80
2023-05-19T11:42:35.529Z,5.20
2023-05-19T11:43:35.629Z,6.20
2023-05-19T11:44:35.742Z,6.60
2023-05-19T11:45:36.159Z,6.00
2023-05-19T11:46:36.002Z,6.00
2023-05-19T11:47:47.070Z,5.80
2023-05-19T11:48:37.079Z,4.70
2023-05-19T11:49:36.170Z,4.30
2023-05-19T11:50:36.246Z,4.30
2023-05-19T11:51:36.314Z,5.00
2023-05-19T11:52:36.404Z,6.20
2023-05-19T11:53:36.472Z,4.20
2023-05-19T11:54:36.568Z,4.70
2023-05-19T11:55:36.636Z,6.20
2023-05-19T11:56:36.703Z,5.20
2023-05-19T11:57:36.753Z,5.10
2023-05-19T11:58:36.889Z,6.30
2023-05-19T11:59:37.039Z,4.70
2023-05-19T12:00:37.057Z,4.40
2023-05-19T12:01:37.080Z,6.40
2023-05-19T12:02:37.256Z,5.30
2023-05-19T12:03:37.520Z,5.60
2023-05-19T12:04:37.467Z,5.60
2023-05-19T12:05:40.892Z,9.70
2023-05-19T12:06:38.701Z,4.40
2023-05-19T12:07:37.593Z,4.50
2023-05-19T12:08:37.703Z,4.60
2023-05-19T12:09:37.757Z,4.60
2023-05-19T12:10:37.860Z,5.60
2023-05-19T12:11:37.967Z,5.80
2023-05-19T12:12:38.062Z,8.80
2023-05-19T12:13:38.192Z,5.60
2023-05-19T12:14:38.253Z,6.10
2023-05-19T12:15:38.308Z,6.30
2023-05-19T12:16:38.500Z,5.20
2023-05-19T12:17:38.512Z,6.00
2023-05-19T12:18:38.620Z,12.80
2023-05-19T12:19:38.651Z,6.40
2023-05-19T12:20:38.728Z,6.20
2023-05-19T12:21:38.796Z,5.20
2023-05-19T12:22:38.855Z,6.00
2023-05-19T12:23:38.953Z,5.30
2023-05-19T12:24:39.099Z,6.00
2023-05-19T12:25:39.118Z,6.00
2023-05-19T12:26:39.214Z,5.50
2023-05-19T12:27:39.320Z,5.20
2023-05-19T12:28:39.370Z,7.00
2023-05-19T12:29:39.523Z,9.80
2023-05-19T12:30:39.593Z,5.40
2023-05-19T12:31:39.685Z,8.00
2023-05-19T12:32:39.772Z,6.00
2023-05-19T12:33:39.808Z,5.60
2023-05-19T12:34:39.893Z,5.90
2023-05-19T12:35:39.949Z,4.90
2023-05-19T12:36:40.014Z,7.20
2023-05-19T12:37:40.114Z,4.50
2023-05-19T12:38:40.210Z,5.90
2023-05-19T12:39:40.303Z,5.70
2023-05-19T12:40:40.386Z,6.30
2023-05-19T12:41:40.433Z,9.70
2023-05-19T12:42:40.503Z,6.50
2023-05-19T12:43:40.621Z,5.60
2023-05-19T12:44:40.727Z,5.60
2023-05-19T12:45:40.830Z,5.80
2023-05-19T12:46:40.840Z,5.80
2023-05-19T12:47:40.968Z,6.60
2023-05-19T12:48:41.035Z,4.90
2023-05-19T12:49:41.082Z,6.10
2023-05-19T12:50:41.179Z,6.60
2023-05-19T12:51:41.285Z,6.90
2023-05-19T12:52:41.356Z,5.90
2023-05-19T12:53:41.455Z,5.80
2023-05-19T12:54:41.554Z,5.60
2023-05-19T12:55:41.626Z,5.20
2023-05-19T12:56:41.748Z,6.10
2023-05-19T12:57:41.806Z,6.20
2023-05-19T12:58:41.880Z,5.40
2023-05-19T12:59:41.934Z,8.80
2023-05-19T13:00:42.161Z,5.30
2023-05-19T13:01:42.150Z,6.00
2023-05-19T13:02:42.237Z,6.50
2023-05-19T13:03:42.323Z,5.50
2023-05-19T13:04:42.329Z,7.60
2023-05-19T13:05:42.371Z,6.60
2023-05-19T13:06:42.515Z,6.00
2023-05-19T13:07:42.566Z,7.20
2023-05-19T13:08:42.637Z,4.90
2023-05-19T13:09:42.693Z,5.50
2023-05-19T13:10:42.780Z,6.60
2023-05-19T13:11:42.864Z,6.20
2023-05-19T13:12:42.931Z,4.90
2023-05-19T13:13:43.009Z,8.20
2023-05-19T13:14:43.073Z,10.70
2023-05-19T13:15:43.189Z,5.50
2023-05-19T13:16:43.274Z,5.50
2023-05-19T13:17:43.324Z,5.70